createdAt,value
2018-06-13T00:00:03.585Z,10.30
2018-06-13T00:02:31.785Z,13.40
2018-06-13T00:04:59.967Z,12.00
2018-06-13T00:07:28.161Z,12.63
2018-06-13T00:09:56.368Z,8.33
2018-06-13T00:12:24.309Z,11.17
2018-06-13T00:14:52.499Z,9.43
2018-06-13T00:17:20.456Z,9.73
2018-06-13T00:19:48.684Z,7.03
2018-06-13T00:22:16.963Z,7.40
2018-06-13T00:24:45.179Z,12.73
2018-06-13T00:27:13.825Z,8.70
2018-06-13T00:29:42.032Z,9.40
2018-06-13T00:32:10.219Z,7.60
2018-06-13T00:34:38.395Z,8.90
2018-06-13T00:37:06.361Z,9.70
2018-06-13T00:39:34.519Z,14.10
2018-06-13T00:42:02.712Z,8.80
2018-06-13T00:44:30.650Z,15.37
2018-06-13T00:46:58.853Z,12.67
2018-06-13T00:49:27.408Z,11.30
2018-06-13T00:51:55.599Z,12.63
2018-06-13T00:54:23.788Z,8.53
2018-06-13T00:56:51.727Z,10.30
2018-06-13T00:59:19.932Z,10.30
2018-06-13T01:01:47.869Z,13.20
2018-06-13T01:04:16.078Z,18.60
2018-06-13T01:06:44.012Z,16.40
2018-06-13T01:09:12.211Z,17.50
2018-06-13T01:11:40.145Z,11.87
2018-06-13T01:14:08.344Z,11.80
2018-06-13T01:16:36.556Z,16.07
2018-06-13T01:19:04.745Z,13.50
2018-06-13T01:21:32.957Z,10.70
2018-06-13T01:24:01.142Z,17.93
2018-06-13T01:26:29.339Z,8.73
2018-06-13T01:28:57.266Z,9.73
2018-06-13T01:31:25.464Z,14.50
2018-06-13T01:33:53.650Z,17.13
2018-06-13T01:36:27.140Z,13.07
2018-06-13T01:38:55.651Z,16.17
2018-06-13T01:41:23.833Z,21.30
2018-06-13T01:43:52.032Z,13.20
2018-06-13T01:46:20.244Z,14.03
2018-06-13T01:48:48.180Z,14.77
2018-06-13T01:51:16.384Z,13.30
2018-06-13T01:53:44.562Z,12.37
2018-06-13T01:56:12.507Z,11.73
2018-06-13T01:58:40.697Z,10.30
2018-06-13T02:01:08.896Z,12.73
2018-06-13T02:03:37.097Z,15.53
2018-06-13T02:06:05.279Z,17.57
2018-06-13T02:08:33.477Z,16.93
2018-06-13T02:11:01.667Z,12.60
2018-06-13T02:13:29.618Z,12.67
2018-06-13T02:15:57.831Z,13.80
2018-06-13T02:18:26.028Z,12.60
2018-06-13T02:20:54.230Z,11.43
2018-06-13T02:23:22.431Z,15.70
2018-06-13T02:25:50.413Z,14.90
2018-06-13T02:28:18.618Z,12.37
2018-06-13T02:30:46.815Z,14.70
2018-06-13T02:33:15.049Z,18.93
2018-06-13T02:35:43.237Z,9.77
2018-06-13T02:38:11.459Z,16.70
2018-06-13T02:40:39.706Z,10.20
2018-06-13T02:43:07.916Z,10.80
2018-06-13T02:45:36.108Z,14.00
2018-06-13T02:48:04.304Z,12.43
2018-06-13T02:50:32.516Z,10.87
2018-06-13T02:53:00.728Z,16.80
2018-06-13T02:55:28.926Z,15.53
2018-06-13T02:57:57.131Z,17.60
2018-06-13T03:00:25.323Z,7.97
2018-06-13T03:02:53.521Z,10.03
2018-06-13T03:05:22.005Z,10.50
2018-06-13T03:07:49.945Z,12.90
2018-06-13T03:10:18.139Z,10.30
2018-06-13T03:12:46.332Z,11.77
2018-06-13T03:15:14.552Z,12.17
2018-06-13T03:17:42.746Z,9.73
2018-06-13T03:20:10.941Z,11.40
2018-06-13T03:22:38.907Z,11.53
2018-06-13T03:25:06.858Z,11.53
2018-06-13T03:27:35.058Z,12.07
2018-06-13T03:30:03.271Z,10.83
2018-06-13T03:32:31.472Z,13.23
2018-06-13T03:34:59.712Z,12.00
2018-06-13T03:37:27.895Z,8.80
2018-06-13T03:39:56.098Z,13.23
2018-06-13T03:42:24.287Z,11.60
2018-06-13T03:44:52.475Z,9.37
2018-06-13T03:47:20.657Z,13.93
2018-06-13T03:49:48.863Z,13.10
2018-06-13T03:52:17.227Z,12.43
2018-06-13T03:54:45.457Z,12.67
2018-06-13T03:57:13.405Z,10.70
2018-06-13T03:59:41.583Z,9.60
2018-06-13T04:02:09.771Z,12.50
2018-06-13T04:04:37.942Z,10.43
2018-06-13T04:07:06.187Z,12.70
2018-06-13T04:09:34.324Z,11.73
2018-06-13T04:12:02.515Z,10.47
2018-06-13T04:14:30.703Z,11.97
2018-06-13T04:16:58.897Z,12.13
2018-06-13T04:19:27.089Z,9.37
2018-06-13T04:21:58.287Z,13.30
2018-06-13T04:24:26.470Z,8.90
2018-06-13T04:26:54.873Z,11.17
2018-06-13T04:29:23.072Z,9.77
2018-06-13T04:31:51.274Z,8.20
2018-06-13T04:34:19.485Z,9.07
2018-06-13T04:36:47.664Z,10.90
2018-06-13T04:39:15.864Z,8.83
2018-06-13T04:41:44.061Z,13.67
2018-06-13T04:44:12.251Z,7.10
2018-06-13T04:46:40.458Z,10.13
2018-06-13T04:49:08.663Z,8.70
2018-06-13T04:51:36.861Z,8.47
2018-06-13T04:54:05.092Z,6.03
2018-06-13T04:56:33.276Z,6.63
2018-06-13T04:59:01.492Z,5.83
2018-06-13T05:01:29.687Z,8.83
2018-06-13T05:03:57.921Z,5.53
2018-06-13T05:06:26.113Z,5.00
2018-06-13T05:08:54.319Z,7.40
2018-06-13T05:11:22.515Z,8.90
2018-06-13T05:13:50.714Z,6.20
2018-06-13T05:16:18.659Z,3.00
2018-06-13T05:18:46.854Z,3.50
2018-06-13T05:21:14.825Z,3.70
2018-06-13T05:23:43.004Z,4.87
2018-06-13T05:26:11.202Z,4.73
2018-06-13T05:28:39.452Z,9.07
2018-06-13T05:31:07.604Z,5.37
2018-06-13T05:33:35.845Z,27.27
2018-06-13T05:36:04.067Z,5.10
2018-06-13T05:38:32.022Z,20.03
2018-06-13T05:41:00.212Z,7.30
2018-06-13T05:43:28.152Z,5.60
2018-06-13T05:45:56.355Z,6.10
2018-06-13T05:48:24.595Z,4.97
2018-06-13T05:50:52.821Z,5.30
2018-06-13T05:53:21.023Z,6.47
2018-06-13T05:55:49.217Z,9.97
2018-06-13T05:58:17.406Z,11.13
2018-06-13T06:00:46.225Z,8.80
2018-06-13T06:03:14.424Z,12.83
2018-06-13T06:05:42.620Z,10.10
2018-06-13T06:08:11.580Z,9.97
2018-06-13T06:10:39.787Z,9.23
2018-06-13T06:13:07.973Z,8.03
2018-06-13T06:15:36.168Z,8.77
2018-06-13T06:18:04.403Z,8.10
2018-06-13T06:20:32.592Z,12.80
2018-06-13T06:23:00.792Z,8.50
2018-06-13T06:25:29.025Z,8.87
2018-06-13T06:27:57.230Z,14.63
2018-06-13T06:30:25.427Z,9.90
2018-06-13T06:32:53.696Z,8.40
2018-06-13T06:35:21.887Z,6.73
2018-06-13T06:37:50.081Z,5.43
2018-06-13T06:40:18.280Z,5.47
2018-06-13T06:42:46.466Z,5.90
2018-06-13T06:45:14.662Z,5.87
2018-06-13T06:47:42.841Z,7.87
2018-06-13T06:50:10.790Z,5.60
2018-06-13T06:52:38.975Z,8.80
2018-06-13T06:55:07.172Z,7.97
2018-06-13T06:57:35.398Z,22.30
2018-06-13T07:00:03.673Z,12.27
2018-06-13T07:02:31.878Z,18.67
2018-06-13T07:05:00.067Z,5.50
2018-06-13T07:07:28.264Z,6.57
2018-06-13T07:09:56.460Z,7.70
2018-06-13T07:12:24.656Z,4.90
2018-06-13T07:14:52.868Z,5.60
2018-06-13T07:17:21.075Z,9.53
2018-06-13T07:19:49.289Z,6.10
2018-06-13T07:22:17.238Z,5.83
2018-06-13T07:24:45.468Z,10.67
2018-06-13T07:27:13.695Z,11.17
2018-06-13T07:29:42.042Z,6.87
2018-06-13T07:32:10.241Z,7.27
2018-06-13T07:34:38.455Z,8.83
2018-06-13T07:37:06.664Z,17.57
2018-06-13T07:39:34.849Z,7.90
2018-06-13T07:42:03.072Z,9.70
2018-06-13T07:44:31.288Z,11.73
2018-06-13T07:46:59.705Z,7.37
2018-06-13T07:49:27.927Z,6.93
2018-06-13T07:51:56.119Z,5.93
2018-06-13T07:54:24.306Z,6.10
2018-06-13T07:56:52.516Z,5.23
2018-06-13T07:59:20.742Z,3.90
2018-06-13T08:01:48.925Z,4.70
2018-06-13T08:04:17.148Z,4.27
2018-06-13T08:06:45.349Z,4.10
2018-06-13T08:09:13.524Z,7.07
2018-06-13T08:11:41.739Z,5.13
2018-06-13T08:14:09.927Z,5.63
2018-06-13T08:16:38.168Z,5.10
2018-06-13T08:19:06.367Z,4.00
2018-06-13T08:21:34.555Z,5.57
2018-06-13T08:24:02.777Z,4.43
2018-06-13T08:26:30.992Z,5.77
2018-06-13T08:28:59.179Z,4.43
2018-06-13T08:31:27.126Z,4.00
2018-06-13T08:33:55.362Z,4.00
2018-06-13T08:36:23.562Z,5.10
2018-06-13T08:38:51.756Z,4.50
2018-06-13T08:41:19.947Z,10.40
2018-06-13T08:43:48.133Z,7.60
2018-06-13T08:46:16.331Z,5.07
2018-06-13T08:48:44.522Z,5.70
2018-06-13T08:51:12.733Z,6.80
2018-06-13T08:53:40.926Z,6.07
2018-06-13T08:56:09.125Z,5.00
2018-06-13T08:58:37.322Z,8.90
2018-06-13T09:01:05.553Z,7.73
2018-06-13T09:03:33.767Z,5.80
2018-06-13T09:06:01.958Z,9.50
2018-06-13T09:08:29.935Z,11.47
2018-06-13T09:10:58.160Z,5.70
2018-06-13T09:13:26.358Z,8.43
2018-06-13T09:15:54.558Z,6.70
2018-06-13T09:18:22.759Z,6.63
2018-06-13T09:20:50.971Z,9.53
2018-06-13T09:23:19.171Z,11.57
2018-06-13T09:25:47.384Z,8.90
2018-06-13T09:28:15.596Z,6.63
2018-06-13T09:30:43.802Z,7.97
2018-06-13T09:33:12.208Z,9.10
2018-06-13T09:35:40.464Z,12.17
2018-06-13T09:38:08.667Z,14.07
2018-06-13T09:40:36.875Z,19.33
2018-06-13T09:43:05.108Z,14.70
2018-06-13T09:45:33.322Z,19.50
2018-06-13T09:48:01.528Z,17.23
2018-06-13T09:50:29.751Z,14.13
2018-06-13T09:52:57.990Z,16.13
2018-06-13T09:55:26.213Z,15.77
2018-06-13T09:57:54.402Z,15.03
2018-06-13T10:00:27.939Z,14.93
2018-06-13T10:02:56.131Z,16.90
2018-06-13T10:05:24.331Z,16.67
2018-06-13T10:07:52.535Z,30.83
2018-06-13T10:10:20.742Z,23.93
2018-06-13T10:12:48.677Z,18.50
2018-06-13T10:15:16.889Z,18.87
2018-06-13T10:17:44.867Z,29.73
2018-06-13T10:20:13.061Z,17.53
2018-06-13T10:22:41.265Z,18.93
2018-06-13T10:25:09.469Z,19.90
2018-06-13T10:27:38.503Z,16.97
2018-06-13T10:30:06.731Z,21.17
2018-06-13T10:32:34.943Z,16.83
2018-06-13T10:35:03.144Z,16.07
2018-06-13T10:37:31.367Z,13.30
2018-06-13T10:39:59.587Z,12.47
2018-06-13T10:42:27.784Z,12.53
2018-06-13T10:44:55.982Z,15.10
2018-06-13T10:47:24.186Z,15.30
2018-06-13T10:49:52.448Z,11.07
2018-06-13T10:52:20.636Z,13.63
2018-06-13T10:54:48.842Z,22.30
2018-06-13T10:57:17.056Z,16.43
2018-06-13T10:59:45.259Z,20.03
2018-06-13T11:02:13.463Z,17.10
2018-06-13T11:04:41.670Z,21.70
2018-06-13T11:07:09.880Z,20.60
2018-06-13T11:09:38.085Z,18.43
2018-06-13T11:12:06.321Z,24.10
2018-06-13T11:14:34.513Z,19.93
2018-06-13T11:17:02.726Z,16.47
2018-06-13T11:19:30.928Z,18.60
2018-06-13T11:21:59.118Z,19.07
2018-06-13T11:24:27.321Z,15.67
2018-06-13T11:26:55.516Z,13.37
2018-06-13T11:29:23.719Z,14.47
2018-06-13T11:31:51.944Z,15.23
2018-06-13T11:34:20.129Z,22.90
2018-06-13T11:36:48.335Z,18.83
2018-06-13T11:39:16.646Z,20.40
2018-06-13T11:41:44.850Z,24.03
2018-06-13T11:44:13.251Z,19.00
2018-06-13T11:46:41.433Z,20.10
2018-06-13T11:49:09.669Z,15.20
2018-06-13T11:51:37.858Z,17.50
2018-06-13T11:54:06.093Z,15.87
2018-06-13T11:56:34.297Z,12.83
2018-06-13T11:59:02.492Z,15.53
2018-06-13T12:01:30.682Z,11.40
2018-06-13T12:03:58.869Z,10.87
2018-06-13T12:06:27.085Z,11.27
2018-06-13T12:08:55.273Z,9.90
2018-06-13T12:11:23.469Z,12.23
2018-06-13T12:13:51.666Z,5.90
2018-06-13T12:16:19.604Z,6.03
2018-06-13T12:18:47.783Z,6.90
2018-06-13T12:21:15.988Z,6.37
2018-06-13T12:23:44.169Z,5.10
2018-06-13T12:26:12.375Z,4.53
2018-06-13T12:28:40.641Z,6.23
2018-06-13T12:31:08.765Z,4.30
2018-06-13T12:33:36.963Z,5.00
2018-06-13T12:36:05.172Z,7.30
2018-06-13T12:38:33.366Z,5.17
2018-06-13T12:41:01.540Z,4.47
2018-06-13T12:43:29.742Z,5.03
2018-06-13T12:45:58.828Z,6.40
2018-06-13T12:48:27.003Z,6.10
2018-06-13T12:50:55.260Z,6.07
2018-06-13T12:53:23.130Z,5.70
2018-06-13T12:55:51.322Z,6.77
2018-06-13T12:58:19.522Z,11.13
2018-06-13T13:00:47.715Z,9.70
2018-06-13T13:03:15.909Z,16.43
2018-06-13T13:05:44.093Z,12.10
2018-06-13T13:08:12.287Z,12.03
2018-06-13T13:10:40.492Z,13.90
2018-06-13T13:13:08.703Z,14.97
2018-06-13T13:15:36.893Z,15.10
2018-06-13T13:18:05.117Z,15.37
2018-06-13T13:20:33.294Z,14.57
2018-06-13T13:23:01.492Z,15.20
2018-06-13T13:25:29.689Z,15.20
2018-06-13T13:27:57.991Z,16.07
2018-06-13T13:30:26.151Z,16.60
2018-06-13T13:32:54.368Z,15.33
2018-06-13T13:35:22.558Z,22.80
2018-06-13T13:37:50.742Z,14.93
2018-06-13T13:40:18.932Z,14.47
2018-06-13T13:42:47.759Z,15.93
2018-06-13T13:45:15.693Z,13.03
2018-06-13T13:47:43.953Z,17.27
2018-06-13T13:50:12.239Z,12.20
2018-06-13T13:52:40.432Z,14.10
2018-06-13T13:55:08.660Z,12.47
2018-06-13T13:57:36.885Z,12.20
2018-06-13T14:00:05.206Z,16.20
2018-06-13T14:02:33.420Z,11.80
2018-06-13T14:05:01.620Z,17.53
2018-06-13T14:07:29.799Z,13.40
2018-06-13T14:09:57.734Z,12.30
2018-06-13T14:12:25.939Z,16.70
2018-06-13T14:14:53.895Z,15.37
2018-06-13T14:17:22.104Z,15.50
2018-06-13T14:19:50.322Z,17.93
2018-06-13T14:22:18.596Z,16.90
2018-06-13T14:24:46.717Z,20.90
2018-06-13T14:27:14.915Z,16.93
2018-06-13T14:29:43.192Z,20.10
2018-06-13T14:32:11.374Z,50.63
2018-06-13T14:34:39.591Z,26.73
2018-06-13T14:37:08.068Z,25.67
2018-06-13T14:39:36.268Z,58.47
2018-06-13T14:42:04.216Z,34.00
2018-06-13T14:44:32.410Z,34.60
2018-06-13T14:47:00.995Z,30.60
2018-06-13T14:49:29.200Z,34.30
2018-06-13T14:51:57.425Z,34.03
2018-06-13T14:54:25.620Z,37.13
2018-06-13T14:56:53.905Z,31.80
2018-06-13T14:59:22.786Z,36.37
2018-06-13T15:01:50.981Z,32.03
2018-06-13T15:04:24.541Z,36.63
2018-06-13T15:06:52.714Z,32.80
2018-06-13T15:09:20.669Z,30.13
2018-06-13T15:11:48.891Z,32.03
2018-06-13T15:14:17.087Z,40.83
2018-06-13T15:16:45.287Z,36.10
2018-06-13T15:19:13.502Z,35.43
2018-06-13T15:21:41.702Z,30.40
2018-06-13T15:24:09.628Z,34.07
2018-06-13T15:26:37.590Z,38.63
2018-06-13T15:29:05.804Z,40.17
2018-06-13T15:31:34.005Z,34.63
2018-06-13T15:34:02.213Z,33.60
2018-06-13T15:36:30.433Z,34.20
2018-06-13T15:38:58.620Z,34.33
2018-06-13T15:41:26.825Z,37.00
2018-06-13T15:43:55.028Z,41.83
2018-06-13T15:46:23.293Z,35.87
2018-06-13T15:48:51.379Z,28.93
2018-06-13T15:51:19.601Z,31.33
2018-06-13T15:53:47.797Z,31.73
2018-06-13T15:56:16.043Z,31.57
2018-06-13T15:58:44.239Z,27.23
2018-06-13T16:01:12.776Z,32.53
2018-06-13T16:03:40.959Z,40.13
2018-06-13T16:06:09.170Z,37.47
2018-06-13T16:08:37.388Z,31.13
2018-06-13T16:11:05.614Z,32.73
2018-06-13T16:13:33.804Z,28.93
2018-06-13T16:16:02.007Z,31.60
2018-06-13T16:18:31.026Z,26.90
2018-06-13T16:20:59.255Z,25.70
2018-06-13T16:23:27.446Z,28.60
2018-06-13T16:25:55.655Z,32.17
2018-06-13T16:28:23.902Z,26.20
2018-06-13T16:30:52.137Z,26.67
2018-06-13T16:33:20.333Z,30.47
2018-06-13T16:35:48.596Z,25.50
2018-06-13T16:38:16.740Z,24.63
2018-06-13T16:40:44.942Z,28.90
2018-06-13T16:43:12.901Z,29.60
2018-06-13T16:45:41.129Z,31.20
2018-06-13T16:48:09.701Z,30.37
2018-06-13T16:50:48.421Z,27.07
2018-06-13T16:53:28.037Z,27.80
2018-06-13T16:55:55.979Z,26.13
2018-06-13T16:58:24.167Z,31.47
2018-06-13T17:00:53.127Z,33.83
2018-06-13T17:03:21.329Z,28.03
2018-06-13T17:05:50.379Z,23.87
2018-06-13T17:08:22.068Z,28.40
2018-06-13T17:10:50.296Z,28.60
2018-06-13T17:13:18.494Z,27.33
2018-06-13T17:15:46.693Z,28.70
2018-06-13T17:18:14.892Z,26.70
2018-06-13T17:20:43.090Z,27.10
2018-06-13T17:23:11.280Z,30.57
2018-06-13T17:25:39.496Z,26.77
2018-06-13T17:28:07.698Z,27.27
2018-06-13T17:30:35.881Z,25.60
2018-06-13T17:33:03.855Z,28.57
2018-06-13T17:35:32.233Z,29.10
2018-06-13T17:38:01.455Z,29.77
2018-06-13T17:40:29.921Z,27.57
2018-06-13T17:43:00.220Z,31.80
2018-06-13T17:45:30.329Z,29.80
2018-06-13T17:47:58.279Z,27.20
2018-06-13T17:50:26.484Z,29.07
2018-06-13T17:52:54.744Z,30.33
2018-06-13T17:55:23.672Z,32.33
2018-06-13T17:57:51.903Z,29.37
2018-06-13T18:00:20.148Z,30.47
2018-06-13T18:02:48.340Z,30.10
2018-06-13T18:05:17.521Z,31.03
2018-06-13T18:07:45.720Z,40.23
2018-06-13T18:10:13.964Z,33.73
2018-06-13T18:12:42.199Z,34.00
2018-06-13T18:15:10.400Z,34.03
2018-06-13T18:17:38.611Z,38.23
2018-06-13T18:20:07.046Z,40.10
2018-06-13T18:22:37.463Z,34.90
2018-06-13T18:25:05.678Z,36.93
2018-06-13T18:27:33.911Z,35.60
2018-06-13T18:30:02.107Z,34.30
2018-06-13T18:32:31.205Z,33.27
2018-06-13T18:34:59.444Z,31.73
2018-06-13T18:37:27.820Z,37.70
2018-06-13T18:39:56.021Z,40.77
2018-06-13T18:42:24.334Z,35.10
2018-06-13T18:44:52.515Z,36.80
2018-06-13T18:47:20.754Z,37.90
2018-06-13T18:49:48.963Z,37.63
2018-06-13T18:52:17.317Z,36.37
2018-06-13T18:54:45.551Z,36.63
2018-06-13T18:57:13.747Z,35.73
2018-06-13T18:59:41.964Z,43.17
2018-06-13T19:02:10.299Z,39.97
2018-06-13T19:04:38.515Z,36.53
2018-06-13T19:07:06.737Z,41.83
2018-06-13T19:09:34.978Z,35.63
2018-06-13T19:12:03.214Z,40.63
2018-06-13T19:14:31.564Z,39.40
2018-06-13T19:16:59.768Z,39.63
2018-06-13T19:19:27.957Z,35.93
2018-06-13T19:21:56.199Z,32.13
2018-06-13T19:24:24.398Z,31.80
2018-06-13T19:26:52.595Z,32.93
2018-06-13T19:29:20.796Z,33.70
2018-06-13T19:31:49.014Z,28.50
2018-06-13T19:34:17.211Z,34.23
2018-06-13T19:36:45.409Z,28.97
2018-06-13T19:39:13.631Z,33.47
2018-06-13T19:41:41.810Z,30.50
2018-06-13T19:44:10.048Z,30.20
2018-06-13T19:46:38.242Z,33.17
2018-06-13T19:49:06.434Z,28.50
2018-06-13T19:51:35.264Z,31.40
2018-06-13T19:54:08.746Z,25.60
2018-06-13T19:56:36.949Z,25.53
2018-06-13T19:59:05.152Z,41.90
2018-06-13T20:01:33.530Z,36.97
2018-06-13T20:04:07.091Z,26.10
2018-06-13T20:06:38.195Z,34.67
2018-06-13T20:11:47.565Z,27.10
2018-06-13T20:14:21.314Z,39.07
2018-06-13T20:16:55.575Z,27.93
2018-06-13T20:19:29.176Z,44.83
2018-06-13T20:21:58.751Z,33.93
2018-06-13T20:24:27.139Z,29.80
2018-06-13T20:27:00.754Z,28.03
2018-06-13T20:29:34.295Z,30.53
2018-06-13T20:32:02.257Z,30.97
2018-06-13T20:34:30.227Z,31.27
2018-06-13T20:36:58.675Z,42.13
2018-06-13T20:39:30.701Z,36.43
2018-06-13T20:41:58.991Z,40.33
2018-06-13T20:44:27.210Z,33.90
2018-06-13T20:46:55.405Z,27.70
2018-06-13T20:49:23.733Z,35.47
2018-06-13T20:51:52.036Z,30.00
2018-06-13T20:54:20.006Z,35.80
2018-06-13T20:56:48.288Z,32.47
2018-06-13T20:59:16.245Z,31.83
2018-06-13T21:01:44.679Z,29.60
2018-06-13T21:04:12.915Z,28.90
2018-06-13T21:06:40.898Z,31.03
2018-06-13T21:09:10.034Z,33.00
2018-06-13T21:11:40.263Z,37.03
2018-06-13T21:14:08.478Z,27.57
2018-06-13T21:16:37.221Z,23.20
2018-06-13T21:19:05.441Z,32.00
2018-06-13T21:21:33.551Z,33.73
2018-06-13T21:24:01.910Z,30.27
2018-06-13T21:26:30.167Z,31.80
2018-06-13T21:28:58.472Z,29.83
2018-06-13T21:31:26.726Z,26.70
2018-06-13T21:33:54.673Z,24.10
2018-06-13T21:36:22.641Z,24.30
2018-06-13T21:38:51.011Z,32.60
2018-06-13T21:41:19.208Z,31.93
2018-06-13T21:43:47.170Z,25.70
2018-06-13T21:46:15.579Z,26.70
2018-06-13T21:48:43.854Z,23.10
2018-06-13T21:51:12.181Z,25.70
2018-06-13T21:53:41.155Z,28.50
2018-06-13T21:56:10.192Z,27.23
2018-06-13T21:58:38.133Z,23.80
2018-06-13T22:01:06.351Z,22.30
2018-06-13T22:03:34.548Z,27.20
2018-06-13T22:06:02.752Z,25.13
2018-06-13T22:08:30.964Z,21.93
2018-06-13T22:10:59.209Z,21.37
2018-06-13T22:13:45.282Z,24.73
2018-06-13T22:16:39.701Z,24.07
2018-06-13T22:19:23.363Z,23.60
2018-06-13T22:28:26.013Z,30.47
2018-06-13T22:30:54.082Z,21.70
2018-06-13T22:33:28.842Z,24.47
2018-06-13T22:36:55.417Z,22.20
2018-06-13T22:39:51.043Z,25.60
2018-06-13T22:52:40.440Z,20.57
2018-06-13T22:55:12.755Z,23.27
2018-06-13T22:57:49.969Z,20.90
2018-06-13T23:05:06.604Z,25.27
2018-06-13T23:08:32.004Z,30.43
2018-06-13T23:11:00.533Z,28.03
2018-06-13T23:13:33.622Z,30.90
